Recursolandia, Brazil
Current Conditions -  °F | °C
As of 8:00 PM on Saturday 20 Dec 2014 (Local Time) from SBPJ Reporting Station
Thunderstorm Thunderstorm  
Wind Chill: 79°   Ceiling: Unl
Heat Index: 82°   Visibility: 6mi
Dew Point: 72°   Wind: 6mph
Humidity: 78%   Direction: 160°SSE
Pressure: 29.88"   Gusts: NA
Location:  8.73°S, 47.24°W
Report Text: SBPJ 202300Z 16005KT 9999 TS VCSH SCT020 FEW045CB 26/22 Q1012
Loading
Personal Weather Stations






























Interactive Weather Map New forecast layout! Learn more

10-Day Weather Forecast

Advertisements
Track Severe Weather on mobile